createdAt,value
2022-10-06T00:18:31.401Z,21.1
2022-10-06T00:48:31.438Z,21.0
2022-10-06T01:18:31.388Z,21.0
2022-10-06T01:48:31.397Z,21.0
2022-10-06T02:18:31.433Z,21.0
2022-10-06T02:48:31.466Z,20.9
2022-10-06T03:18:31.434Z,20.9
2022-10-06T03:48:31.412Z,20.8
2022-10-06T04:18:31.408Z,20.8
2022-10-06T04:48:31.434Z,20.8
2022-10-06T05:18:31.417Z,20.8
2022-10-06T05:48:31.426Z,20.8
2022-10-06T06:18:31.422Z,20.9
2022-10-06T06:48:31.483Z,21.0
2022-10-06T07:18:31.418Z,21.1
2022-10-06T07:48:31.384Z,21.3
2022-10-06T08:18:31.415Z,21.5
2022-10-06T08:48:31.398Z,21.6
2022-10-06T10:18:31.432Z,22.0
2022-10-06T10:48:31.377Z,21.9
2022-10-06T11:18:31.362Z,21.8
2022-10-06T11:48:31.396Z,21.8
2022-10-06T12:18:31.389Z,21.6
2022-10-06T12:48:31.470Z,21.6
2022-10-06T13:18:31.399Z,21.5
2022-10-06T13:48:31.112Z,21.5
2022-10-06T14:18:31.402Z,21.4
2022-10-06T14:48:31.395Z,21.3
2022-10-06T15:18:31.388Z,21.3
2022-10-06T15:48:31.359Z,21.2
2022-10-06T16:18:31.418Z,21.2
2022-10-06T16:48:31.382Z,21.1
2022-10-06T17:18:31.394Z,21.1
2022-10-06T17:48:31.369Z,21.1
2022-10-06T18:18:31.379Z,21.1
2022-10-06T18:48:31.388Z,21.0
2022-10-06T19:18:31.352Z,21.0
2022-10-06T19:48:31.093Z,21.0
2022-10-06T20:18:31.360Z,20.9
2022-10-06T20:48:31.369Z,20.9
2022-10-06T21:18:31.047Z,20.9
2022-10-06T21:48:31.331Z,20.8
2022-10-06T22:18:31.360Z,20.8
2022-10-06T22:48:31.343Z,20.7
2022-10-06T23:18:31.355Z,20.7
2022-10-06T23:48:31.342Z,20.6
